createdAt,value
2022-12-04T00:01:46.544Z,8.02
2022-12-04T00:06:58.616Z,6.43
2022-12-04T00:12:02.999Z,6.22
2022-12-04T00:17:07.043Z,6.32
2022-12-04T00:22:12.432Z,6.53
2022-12-04T00:27:16.381Z,7.18
2022-12-04T00:32:20.488Z,6.15
2022-12-04T00:37:25.791Z,7.22
2022-12-04T00:42:29.774Z,6.63
2022-12-04T00:47:34.232Z,8.13
2022-12-04T00:52:39.612Z,9.70
2022-12-04T00:57:43.594Z,9.38
2022-12-04T01:02:48.548Z,9.85
2022-12-04T01:07:55.104Z,9.73
2022-12-04T01:12:59.137Z,8.98
2022-12-04T01:18:03.457Z,9.38
2022-12-04T01:23:08.815Z,11.38
2022-12-04T01:28:13.117Z,10.15
2022-12-04T01:33:17.258Z,9.00
2022-12-04T01:38:22.777Z,9.10
2022-12-04T01:43:28.232Z,8.82
2022-12-04T01:48:34.806Z,6.97
2022-12-04T01:53:43.113Z,5.95
2022-12-04T01:58:53.660Z,6.57
2022-12-04T02:03:58.836Z,6.75
2022-12-04T02:09:05.389Z,7.22
2022-12-04T02:14:23.240Z,8.88
2022-12-04T02:20:01.785Z,8.73
2022-12-04T02:25:14.029Z,8.35
2022-12-04T02:30:19.736Z,8.82
2022-12-04T02:35:28.218Z,8.57
2022-12-04T02:40:40.856Z,9.50
2022-12-04T02:45:50.204Z,8.63
2022-12-04T02:56:05.720Z,9.10
2022-12-04T03:01:23.947Z,7.53
2022-12-04T03:06:32.647Z,6.75
2022-12-04T03:11:39.691Z,7.83
2022-12-04T03:16:47.338Z,7.32
2022-12-04T03:21:55.419Z,6.45
2022-12-04T03:27:04.972Z,7.25
2022-12-04T03:32:14.628Z,6.32
2022-12-04T03:37:23.717Z,6.57
2022-12-04T03:42:33.462Z,7.53
2022-12-04T03:47:44.354Z,7.63
2022-12-04T03:52:54.288Z,7.72
2022-12-04T03:58:05.274Z,8.70
2022-12-04T04:03:15.813Z,7.03
2022-12-04T04:14:01.149Z,8.10
2022-12-04T04:19:26.119Z,6.85
2022-12-04T04:24:39.971Z,6.97
2022-12-04T04:29:52.289Z,7.05
2022-12-04T04:35:07.037Z,8.80
2022-12-04T04:40:22.593Z,8.98
2022-12-04T04:45:31.543Z,9.70
2022-12-04T04:50:38.841Z,13.07
2022-12-04T04:55:44.311Z,15.23
2022-12-04T05:01:00.162Z,10.25
2022-12-04T05:06:06.360Z,9.63
2022-12-04T05:11:14.118Z,10.07
2022-12-04T05:16:19.027Z,10.40
2022-12-04T05:21:24.733Z,12.88
2022-12-04T05:26:29.596Z,12.40
2022-12-04T05:31:33.953Z,12.52
2022-12-04T05:36:39.408Z,12.18
2022-12-04T05:41:43.388Z,9.93
2022-12-04T05:46:47.955Z,16.73
2022-12-04T05:51:54.007Z,12.63
2022-12-04T05:56:58.762Z,9.88
2022-12-04T06:02:02.866Z,5.82
2022-12-04T06:07:11.334Z,3.75
2022-12-04T06:12:15.770Z,7.15
2022-12-04T06:17:20.723Z,6.72
2022-12-04T06:22:26.167Z,4.30
2022-12-04T06:27:30.704Z,2.63
2022-12-04T06:32:35.194Z,4.63
2022-12-04T06:37:40.547Z,11.57
2022-12-04T06:42:44.768Z,4.78
2022-12-04T06:47:49.480Z,4.45
2022-12-04T06:52:54.907Z,4.72
2022-12-04T06:57:59.342Z,3.33
2022-12-04T07:03:05.845Z,5.38
2022-12-04T07:08:11.899Z,4.38
2022-12-04T07:13:16.063Z,3.83
2022-12-04T07:18:20.590Z,2.53
2022-12-04T07:23:25.995Z,5.65
2022-12-04T07:28:30.043Z,7.00
2022-12-04T07:33:34.825Z,5.00
2022-12-04T07:38:40.340Z,13.68
2022-12-04T07:43:44.977Z,12.10
2022-12-04T07:48:49.131Z,8.23
2022-12-04T07:54:02.014Z,4.68
2022-12-04T07:59:07.496Z,4.97
2022-12-04T08:04:13.009Z,8.88
2022-12-04T08:09:20.694Z,7.93
2022-12-04T08:14:25.702Z,6.47
2022-12-04T08:19:29.920Z,6.95
2022-12-04T08:24:35.863Z,7.63
2022-12-04T08:29:40.286Z,9.65
2022-12-04T08:34:44.363Z,6.45
2022-12-04T08:39:50.216Z,6.32
2022-12-04T08:44:54.453Z,6.88
2022-12-04T08:49:58.606Z,5.43
2022-12-04T08:55:03.999Z,6.72
2022-12-04T09:00:12.266Z,6.57
2022-12-04T09:05:16.301Z,5.05
2022-12-04T09:10:21.935Z,5.97
2022-12-04T09:15:26.447Z,3.28
2022-12-04T09:20:33.099Z,3.00
2022-12-04T09:25:39.124Z,2.95
2022-12-04T09:30:43.815Z,3.65
2022-12-04T09:35:48.673Z,2.97
2022-12-04T09:41:06.170Z,4.47
2022-12-04T09:46:17.024Z,6.28
2022-12-04T09:51:25.079Z,3.67
2022-12-04T09:56:32.259Z,4.95
2022-12-04T10:01:44.414Z,5.88
2022-12-04T10:06:55.645Z,5.78
2022-12-04T10:12:14.818Z,9.10
2022-12-04T10:17:41.393Z,6.13
2022-12-04T10:22:56.860Z,5.80
2022-12-04T10:28:13.557Z,7.28
2022-12-04T10:33:21.711Z,7.43
2022-12-04T10:38:35.553Z,7.80
2022-12-04T10:43:45.377Z,6.50
2022-12-04T10:48:52.211Z,6.80
2022-12-04T10:53:58.653Z,7.07
2022-12-04T10:59:06.568Z,6.15
2022-12-04T11:04:26.154Z,5.63
2022-12-04T11:09:31.269Z,5.10
2022-12-04T11:14:37.693Z,4.97
2022-12-04T11:19:41.661Z,6.82
2022-12-04T11:24:52.289Z,6.15
2022-12-04T11:29:58.606Z,6.13
2022-12-04T11:35:14.008Z,6.28
2022-12-04T11:40:20.074Z,7.05
2022-12-04T11:45:26.032Z,7.90
2022-12-04T11:50:44.205Z,6.90
2022-12-04T11:56:00.824Z,6.95
2022-12-04T12:01:21.328Z,6.82
2022-12-04T12:06:34.186Z,7.82
2022-12-04T12:11:47.672Z,7.28
2022-12-04T12:17:03.843Z,8.55
2022-12-04T12:22:18.061Z,8.32
2022-12-04T12:27:40.253Z,9.00
2022-12-04T12:32:59.322Z,7.32
2022-12-04T12:38:07.089Z,7.50
2022-12-04T12:43:16.926Z,7.35
2022-12-04T12:48:30.289Z,6.43
2022-12-04T12:53:41.176Z,7.45
2022-12-04T12:58:52.381Z,7.00
2022-12-04T13:04:06.855Z,6.75
2022-12-04T13:09:19.636Z,6.63
2022-12-04T13:14:36.146Z,7.63
2022-12-04T13:19:49.846Z,7.18
2022-12-04T13:25:28.036Z,6.43
2022-12-04T13:30:43.090Z,6.40
2022-12-04T13:36:17.096Z,6.53
2022-12-04T13:41:24.074Z,9.43
2022-12-04T13:46:34.398Z,9.50
2022-12-04T13:51:41.853Z,5.05
2022-12-04T13:56:58.200Z,6.18
2022-12-04T14:02:14.703Z,6.03
2022-12-04T14:07:33.137Z,6.28
2022-12-04T14:12:44.187Z,9.20
2022-12-04T14:18:03.301Z,9.63
2022-12-04T14:23:27.480Z,7.78
2022-12-04T14:28:57.622Z,8.35
2022-12-04T14:34:21.869Z,7.38
2022-12-04T14:39:36.049Z,7.13
2022-12-04T14:44:42.517Z,9.10
2022-12-04T14:50:04.148Z,8.55
2022-12-04T14:55:29.056Z,5.95
2022-12-04T15:00:41.908Z,6.57
2022-12-04T15:06:07.592Z,6.45
2022-12-04T15:11:38.729Z,7.70
2022-12-04T15:16:45.644Z,8.10
2022-12-04T15:21:50.532Z,8.23
2022-12-04T15:27:02.771Z,8.73
2022-12-04T15:32:13.730Z,9.27
2022-12-04T15:37:24.031Z,6.53
2022-12-04T15:42:31.540Z,6.32
2022-12-04T15:47:54.949Z,4.23
2022-12-04T15:53:11.213Z,6.68
2022-12-04T15:58:30.385Z,5.78
2022-12-04T16:03:48.352Z,7.60
2022-12-04T16:09:00.695Z,7.50
2022-12-04T16:19:31.740Z,8.98
2022-12-04T16:24:35.833Z,8.63
2022-12-04T16:29:40.112Z,9.93
2022-12-04T16:34:45.636Z,12.75
2022-12-04T16:39:50.300Z,9.88
2022-12-04T16:44:55.082Z,11.52
2022-12-04T16:50:02.550Z,11.68
2022-12-04T16:55:17.520Z,9.00
2022-12-04T17:00:22.692Z,8.55
2022-12-04T17:05:30.579Z,7.72
2022-12-04T17:10:35.321Z,7.70
2022-12-04T17:15:39.752Z,9.63
2022-12-04T17:20:45.678Z,7.47
2022-12-04T17:25:50.067Z,7.57
2022-12-04T17:30:54.110Z,6.45
2022-12-04T17:36:00.450Z,6.20
2022-12-04T17:41:06.077Z,5.72
2022-12-04T17:46:11.354Z,7.68
2022-12-04T17:51:20.415Z,7.18
2022-12-04T17:56:25.981Z,7.28
2022-12-04T18:01:31.035Z,7.95
2022-12-04T18:06:39.469Z,6.88
2022-12-04T18:11:47.813Z,9.00
2022-12-04T18:16:54.832Z,6.45
2022-12-04T18:22:00.502Z,7.03
2022-12-04T18:27:05.402Z,7.30
2022-12-04T18:32:10.152Z,6.75
2022-12-04T18:37:16.975Z,6.10
2022-12-04T18:42:21.026Z,8.77
2022-12-04T18:47:26.914Z,6.85
2022-12-04T18:52:36.573Z,7.68
2022-12-04T18:57:40.561Z,7.78
2022-12-04T19:02:46.371Z,8.50
2022-12-04T19:07:54.257Z,8.40
2022-12-04T19:12:58.706Z,10.02
2022-12-04T19:18:04.113Z,7.82
2022-12-04T19:23:09.841Z,7.22
2022-12-04T19:28:14.124Z,7.53
2022-12-04T19:33:18.186Z,6.40
2022-12-04T19:38:23.799Z,5.82
2022-12-04T19:43:27.759Z,5.45
2022-12-04T19:48:32.277Z,8.48
2022-12-04T19:53:41.343Z,8.13
2022-12-04T19:58:45.813Z,9.63
2022-12-04T20:03:51.052Z,11.00
2022-12-04T20:08:58.099Z,16.40
2022-12-04T20:14:05.921Z,11.65
2022-12-04T20:19:14.552Z,13.20
2022-12-04T20:24:20.127Z,14.43
2022-12-04T20:29:24.589Z,8.52
2022-12-04T20:34:28.619Z,8.80
2022-12-04T20:39:35.129Z,8.85
2022-12-04T20:44:40.226Z,8.05
2022-12-04T20:49:44.182Z,6.18
2022-12-04T20:54:49.653Z,9.57
2022-12-04T20:59:55.738Z,8.63
2022-12-04T21:05:00.680Z,10.48
2022-12-04T21:10:09.733Z,11.35
2022-12-04T21:20:35.137Z,9.88
2022-12-04T21:25:41.969Z,11.32
2022-12-04T21:30:46.934Z,10.60
2022-12-04T21:35:50.984Z,9.85
2022-12-04T21:40:56.465Z,11.50
2022-12-04T21:46:07.485Z,10.98
2022-12-04T21:51:39.793Z,9.48
2022-12-04T21:56:39.527Z,9.63
2022-12-04T22:01:47.830Z,7.32
2022-12-04T22:06:52.718Z,9.47
2022-12-04T22:11:58.841Z,9.48
2022-12-04T22:17:05.448Z,11.80
2022-12-04T22:22:11.794Z,12.02
2022-12-04T22:27:17.967Z,15.75
2022-12-04T22:32:22.057Z,12.35
2022-12-04T22:37:28.595Z,9.68
2022-12-04T22:42:34.229Z,9.40
2022-12-04T22:47:39.910Z,10.75
2022-12-04T22:52:43.964Z,8.18
2022-12-04T22:57:49.515Z,7.97
2022-12-04T23:02:53.627Z,7.95
2022-12-04T23:07:57.929Z,9.05
2022-12-04T23:13:04.392Z,8.45
2022-12-04T23:18:09.244Z,7.47
2022-12-04T23:23:14.684Z,10.65
2022-12-04T23:28:20.355Z,9.15
2022-12-04T23:33:24.662Z,7.68
2022-12-04T23:38:29.942Z,9.00
2022-12-04T23:43:36.560Z,9.18
2022-12-04T23:48:41.699Z,9.85
2022-12-04T23:53:46.295Z,9.63
2022-12-04T23:58:53.909Z,10.40
